Time;durP1;ratioP1;P1;durP2;ratioP2;P2;SDS_P1;SDS_P2;PMS_P1;PMS_P2;Temp;Humidity;BMP_temperature;BMP_pressure;BME280_temperature;BME280_humidity;BME280_pressure;Samples;Min_cycle;Max_cycle;Signal;HPM_P1;HPM_P2
2023/02/27 00:00:45;;;;;;;3.92;1.30;;;1.60;99.90;;;0.57;66.39;102062.47;4170431;28;20104;-75
2023/02/27 00:02:49;;;;;;;3.70;1.50;;;1.50;99.90;;;0.56;66.30;102053.81;4169183;28;20024;-75
2023/02/27 00:04:50;;;;;;;;;;;1.50;99.90;;;0.51;66.64;102054.00;4169281;28;20033;-76
2023/02/27 00:06:51;;;;;;;4.82;1.80;;;1.50;99.90;;;0.55;66.72;102054.72;4185436;28;19909;-75
2023/02/27 00:08:53;;;;;;;5.07;1.65;;;1.50;99.90;;;0.54;66.91;102060.81;4181804;28;20057;-75
2023/02/27 00:10:54;;;;;;;3.38;1.75;;;1.50;99.90;;;0.49;66.50;102062.75;4170222;28;20083;-75
2023/02/27 00:12:54;;;;;;;5.28;1.80;;;1.50;99.90;;;0.52;67.00;102060.03;4170090;28;20049;-75
2023/02/27 00:14:55;;;;;;;2.80;1.90;;;1.50;99.90;;;0.56;66.91;102056.41;4169941;28;20034;-75
2023/02/27 00:16:56;;;;;;;5.80;2.72;;;1.50;99.90;;;0.45;67.21;102049.03;4173111;28;20534;-75
2023/02/27 00:19:00;;;;;;;5.15;1.98;;;1.50;99.90;;;0.42;67.29;102058.69;4177466;28;20030;-75
2023/02/27 00:21:00;;;;;;;2.80;1.60;;;1.50;99.90;;;0.39;67.38;102066.59;4168897;28;20025;-75
2023/02/27 00:23:01;;;;;;;6.90;1.85;;;1.50;99.90;;;0.33;68.09;102056.47;4168714;28;20541;-75
2023/02/27 00:25:03;;;;;;;2.88;1.60;;;1.40;99.90;;;0.32;68.12;102072.94;4168894;28;20030;-75
2023/02/27 00:27:04;;;;;;;5.28;1.90;;;1.40;99.90;;;0.29;68.34;102058.34;4174746;28;20045;-75
2023/02/27 00:29:05;;;;;;;5.85;1.88;;;1.40;99.90;;;0.30;68.52;102077.34;4174911;28;20036;-75
2023/02/27 00:31:06;;;;;;;2.90;1.98;;;1.40;99.90;;;0.31;68.43;102079.03;4170124;28;20076;-75
2023/02/27 00:33:07;;;;;;;4.50;1.80;;;1.30;99.90;;;0.22;69.11;102074.19;4169967;28;20484;-75
2023/02/27 00:35:10;;;;;;;3.33;1.58;;;1.30;99.90;;;0.44;69.11;102080.25;4170016;28;20068;-75
2023/02/27 00:37:11;;;;;;;6.25;2.10;;;1.30;99.90;;;0.39;68.91;102085.59;4174651;28;20476;-75
2023/02/27 00:39:13;;;;;;;4.65;1.95;;;1.40;99.90;;;0.30;69.39;102083.34;4172074;28;20034;-75
2023/02/27 00:41:14;;;;;;;2.95;1.70;;;1.40;99.90;;;0.17;69.66;102073.50;4169781;28;20021;-75
2023/02/27 00:43:15;;;;;;;3.60;1.90;;;1.30;99.90;;;0.15;69.99;102077.94;4184726;28;20412;-76
2023/02/27 00:45:16;;;;;;;4.65;2.00;;;1.20;99.90;;;0.07;70.49;102082.53;4169676;28;20026;-75
2023/02/27 00:47:17;;;;;;;4.57;1.65;;;1.20;99.90;;;0.04;70.34;102085.22;4174588;28;20088;-76
2023/02/27 00:49:18;;;;;;;3.83;2.10;;;1.10;99.90;;;-0.05;70.99;102081.22;4169700;28;20022;-75
2023/02/27 00:51:20;;;;;;;4.82;2.25;;;1.10;99.90;;;-0.09;71.22;102083.09;4168414;28;20035;-76
2023/02/27 00:53:21;;;;;;;2.53;1.52;;;1.00;99.90;;;-0.09;71.58;102080.50;4168475;28;20465;-75
2023/02/27 00:55:22;;;;;;;2.63;2.00;;;1.00;99.90;;;-0.12;71.41;102080.59;4183703;28;20033;-75
2023/02/27 00:57:23;;;;;;;2.88;1.75;;;1.00;99.90;;;-0.04;71.96;102086.38;4172026;28;20584;-75
2023/02/27 00:59:24;;;;;;;4.55;2.10;;;1.00;99.90;;;-0.12;71.69;102078.00;4169222;28;20037;-75
2023/02/27 01:01:25;;;;;;;2.92;2.20;;;1.00;99.90;;;-0.07;71.95;102072.66;4168394;28;20036;-75
2023/02/27 01:03:26;;;;;;;3.45;1.77;;;0.90;99.90;;;-0.05;72.24;102071.72;4169346;28;20037;-75
2023/02/27 01:05:27;;;;;;;4.30;2.15;;;0.90;99.90;;;-0.10;72.49;102081.41;4169462;28;20034;-75
2023/02/27 01:07:28;;;;;;;2.42;1.50;;;0.90;99.90;;;-0.11;72.56;102069.34;4190673;28;20120;-75
2023/02/27 01:09:29;;;;;;;5.07;2.40;;;0.90;99.90;;;-0.17;72.86;102081.69;4168110;28;20440;-75
2023/02/27 01:11:30;;;;;;;2.70;1.63;;;0.90;99.90;;;-0.15;73.08;102070.34;4169232;28;20033;-75
2023/02/27 01:13:31;;;;;;;4.68;1.90;;;0.90;99.90;;;-0.23;73.50;102072.38;4167886;28;20053;-75
2023/02/27 01:15:32;;;;;;;2.85;1.73;;;0.90;99.90;;;-0.22;73.80;102084.44;4167932;28;20176;-75
2023/02/27 01:17:34;;;;;;;3.08;1.73;;;0.90;99.90;;;-0.21;73.94;102075.75;4172407;28;20045;-75
2023/02/27 01:19:35;;;;;;;5.13;2.22;;;0.90;99.90;;;-0.19;73.98;102075.72;4168356;28;20060;-75
2023/02/27 01:21:36;;;;;;;4.93;2.00;;;0.90;99.90;;;-0.21;74.16;102072.34;4169951;28;20021;-75
2023/02/27 01:23:36;;;;;;;6.55;2.40;;;0.90;99.90;;;-0.21;74.26;102080.13;4167964;28;20026;-75
2023/02/27 01:25:37;;;;;;;3.70;2.10;;;0.90;99.90;;;-0.23;74.68;102074.97;4167574;28;20021;-75
2023/02/27 01:27:39;;;;;;;3.58;2.28;;;0.80;99.90;;;-0.28;74.92;102071.69;4169355;28;20044;-75
2023/02/27 01:29:40;;;;;;;3.58;2.03;;;0.80;99.90;;;-0.38;75.41;102070.31;4171238;28;20039;-75
2023/02/27 01:31:41;;;;;;;2.67;2.10;;;0.80;99.90;;;-0.46;75.71;102059.38;4174794;28;20040;-75
2023/02/27 01:33:42;;;;;;;3.25;1.88;;;0.70;99.90;;;-0.38;75.94;102072.06;4191656;28;20025;-75
2023/02/27 01:35:43;;;;;;;3.40;1.70;;;0.70;99.90;;;-0.26;76.09;102077.66;4167726;28;20504;-75
2023/02/27 01:37:44;;;;;;;6.63;1.88;;;0.70;99.90;;;-0.18;75.79;102070.44;4180114;28;20021;-75
2023/02/27 01:39:45;;;;;;;3.58;2.08;;;0.80;99.90;;;-0.21;75.97;102074.94;4169061;28;20029;-75
2023/02/27 01:41:46;;;;;;;5.82;2.22;;;0.90;99.90;;;-0.18;76.17;102070.44;4184493;28;20017;-75
2023/02/27 01:44:16;;;;;;;5.22;2.13;;;0.80;99.90;;;-0.23;76.47;102066.34;4150965;28;20030;-75
2023/02/27 01:46:17;;;;;;;3.47;2.00;;;0.80;99.90;;;-0.14;76.79;102066.00;4159133;28;20049;-75
2023/02/27 01:48:34;;;;;;;3.35;1.90;;;0.90;99.90;;;-0.24;76.91;102068.06;4168845;28;20029;-75
2023/02/27 01:50:40;;;;;;;5.20;2.22;;;0.90;99.90;;;-0.25;77.12;102068.16;4167640;28;20026;-75
2023/02/27 01:52:44;;;;;;;3.88;2.10;;;0.80;99.90;;;-0.25;77.38;102062.97;4167635;28;20064;-76
2023/02/27 01:54:46;;;;;;;3.75;2.25;;;0.80;99.90;;;-0.32;77.69;102059.72;4176879;28;20477;-75
2023/02/27 01:56:48;;;;;;;2.92;2.22;;;0.80;99.90;;;-0.37;77.68;102063.41;4177223;28;20108;-75
2023/02/27 01:58:55;;;;;;;5.00;2.10;;;0.70;99.90;;;-0.40;78.45;102059.16;4167308;28;20028;-75
2023/02/27 02:00:56;;;;;;;5.95;2.35;;;0.70;99.90;;;-0.35;78.57;102062.44;4167668;28;20057;-75
2023/02/27 02:03:17;;;;;;;3.55;2.08;;;0.70;99.90;;;-0.39;78.79;102050.50;4183815;28;20412;-76
2023/02/27 02:05:20;;;;;;;5.13;1.88;;;0.70;99.90;;;-0.37;78.81;102048.69;4167270;28;20033;-75
2023/02/27 02:07:21;;;;;;;3.90;2.20;;;0.70;99.90;;;-0.33;78.83;102042.47;4172843;28;20029;-75
2023/02/27 02:09:23;;;;;;;5.20;2.13;;;0.70;99.90;;;-0.33;78.89;102050.25;4167583;28;20061;-75
2023/02/27 02:11:26;;;;;;;5.25;2.60;;;0.70;99.90;;;-0.37;79.16;102040.91;4167434;28;20048;-75
2023/02/27 02:13:27;;;;;;;3.30;2.17;;;0.70;99.90;;;-0.35;79.09;102041.69;4167007;28;20036;-75
2023/02/27 02:15:35;;;;;;;5.30;2.00;;;0.70;99.90;;;-0.37;79.24;102043.50;4167359;28;20423;-75
2023/02/27 02:17:57;;;;;;;4.10;2.75;;;0.70;99.90;;;-0.51;79.51;102035.38;4170385;28;20475;-75
2023/02/27 02:21:01;;;;;;;4.80;1.90;;;0.70;99.90;;;-0.40;80.09;102041.03;4168433;28;20033;-75
2023/02/27 02:23:35;;;;;;;5.13;1.70;;;0.60;99.90;;;-0.43;80.05;102037.69;4168497;28;20029;-75
2023/02/27 02:26:08;;;;;;;3.08;1.90;;;0.60;99.90;;;-0.35;79.92;102041.69;4167361;28;20026;-75
2023/02/27 02:28:40;;;;;;;5.40;2.70;;;0.70;99.90;;;-0.44;80.14;102042.03;4149160;28;20097;-75
2023/02/27 02:31:34;;;;;;;3.75;2.10;;;0.60;99.90;;;-0.38;80.30;102035.78;4170906;28;20084;-75
2023/02/27 02:34:17;;;;;;;4.95;1.70;;;0.60;99.90;;;-0.41;80.31;102039.31;4145754;28;20038;-75
2023/02/27 02:37:13;;;;;;;6.80;2.42;;;0.60;99.90;;;-0.27;80.04;102036.25;4151487;28;20065;-75
2023/02/27 02:39:44;;;;;;;3.35;2.10;;;0.70;99.90;;;-0.37;80.67;102025.38;4164970;28;20046;-75
2023/02/27 02:41:48;;;;;;;5.60;2.30;;;0.70;99.90;;;-0.43;80.99;102035.94;4170590;28;20025;-75
2023/02/27 02:44:00;;;;;;;1.90;1.47;;;0.70;99.90;;;-0.37;80.85;102033.16;4171305;28;20030;-75
2023/02/27 02:46:13;;;;;;;6.10;2.08;;;0.70;99.90;;;-0.33;80.99;102028.69;4175520;28;20029;-75
2023/02/27 02:48:41;;;;;;;3.63;1.92;;;0.70;99.90;;;-0.19;80.72;102037.66;4170477;28;20105;-75
2023/02/27 02:51:14;;;;;;;2.97;1.90;;;0.70;99.90;;;-0.11;80.79;102025.25;4171372;28;20026;-75
2023/02/27 02:53:37;;;;;;;5.70;2.10;;;0.80;99.90;;;-0.17;80.56;102030.66;4171545;28;20040;-75
2023/02/27 02:55:52;;;;;;;3.08;1.92;;;0.90;99.90;;;-0.16;80.52;102022.00;4173617;28;20142;-75
2023/02/27 02:58:02;;;;;;;3.92;2.78;;;0.90;99.90;;;-0.25;80.90;102042.22;4171529;28;20505;-75
2023/02/27 03:00:34;;;;;;;6.10;2.45;;;0.90;99.90;;;-0.23;80.80;102032.63;4171259;28;20027;-75
2023/02/27 03:02:48;;;;;;;3.78;1.80;;;0.80;99.90;;;-0.32;81.22;102031.22;4161432;28;20086;-75
2023/02/27 03:04:58;;;;;;;6.85;1.92;;;0.80;99.90;;;-0.17;81.01;102030.66;4186581;28;20082;-75
2023/02/27 03:07:09;;;;;;;4.38;2.03;;;0.80;99.90;;;-0.23;81.17;102030.88;4179306;28;20071;-75
2023/02/27 03:09:22;;;;;;;6.80;1.80;;;0.80;99.90;;;-0.23;81.24;102033.47;4170185;28;20026;-75
2023/02/27 03:11:28;;;;;;;2.45;1.85;;;0.80;99.90;;;-0.27;81.46;102024.13;4169663;28;20037;-75
2023/02/27 03:13:50;;;;;;;3.40;1.88;;;0.80;99.90;;;-0.16;81.53;102037.56;4169836;28;20052;-75
2023/02/27 03:16:08;;;;;;;7.68;2.10;;;0.80;99.90;;;-0.20;81.65;102024.75;4186212;28;20037;-75
2023/02/27 03:18:24;;;;;;;3.22;1.60;;;0.80;99.90;;;-0.23;81.47;102035.22;4171408;28;20021;-75
2023/02/27 03:20:32;;;;;;;3.53;1.73;;;0.80;99.90;;;-0.12;81.25;102035.69;4169832;28;20026;-75
2023/02/27 03:22:45;;;;;;;4.10;2.08;;;0.80;99.90;;;-0.16;81.17;102022.00;4169787;28;20021;-75
2023/02/27 03:24:54;;;;;;;4.57;2.03;;;0.90;99.90;;;-0.21;80.97;102030.84;4173307;28;20036;-75
2023/02/27 03:27:01;;;;;;;6.03;2.65;;;0.90;99.90;;;-0.26;81.65;102036.19;4180562;28;20587;-75
2023/02/27 03:29:18;;;;;;;3.17;1.60;;;0.80;99.90;;;-0.25;81.85;102037.88;4172842;28;20029;-75
2023/02/27 03:31:34;;;;;;;3.85;1.65;;;0.80;99.90;;;-0.37;81.63;102033.16;4170263;28;20025;-75
2023/02/27 03:33:53;;;;;;;6.00;2.22;;;0.80;99.90;;;-0.40;82.15;102030.66;4170089;28;20500;-75
2023/02/27 03:36:12;;;;;;;5.57;1.90;;;0.70;99.90;;;-0.28;81.94;102034.56;4169404;28;20053;-75
2023/02/27 03:38:43;;;;;;;4.05;1.65;;;0.70;99.90;;;-0.38;82.17;102040.97;4169781;28;20032;-76
2023/02/27 03:41:17;;;;;;;5.30;2.00;;;0.70;99.90;;;-0.46;82.61;102023.09;4169158;28;20029;-76
2023/02/27 03:43:41;;;;;;;5.18;2.03;;;0.60;99.90;;;-0.40;82.67;102024.63;4170421;28;20033;-75
2023/02/27 03:45:54;;;;;;;4.93;1.73;;;0.60;99.90;;;-0.46;82.61;102022.25;4151185;28;20038;-75
2023/02/27 03:47:56;;;;;;;7.20;1.80;;;0.70;99.90;;;-0.40;82.85;102020.28;4177020;28;20095;-75
2023/02/27 03:49:57;;;;;;;3.15;1.92;;;0.70;99.90;;;-0.43;82.85;102009.19;4169191;28;20068;-75
2023/02/27 03:51:58;;;;;;;4.93;1.85;;;0.70;99.90;;;-0.32;82.74;102005.28;4169182;28;20030;-75
2023/02/27 03:54:17;;;;;;;2.67;1.92;;;0.70;99.90;;;-0.27;82.84;102008.56;4172119;28;20024;-75
2023/02/27 03:56:26;;;;;;;2.45;1.73;;;0.80;99.90;;;-0.37;82.70;101990.81;4185197;28;20467;-75
2023/02/27 03:58:27;;;;;;;6.13;2.40;;;0.70;99.90;;;-0.43;82.89;101983.25;4169014;28;20456;-75
2023/02/27 04:00:28;;;;;;;5.55;1.92;;;0.70;99.90;;;-0.40;82.88;101989.19;4169102;28;20021;-75
2023/02/27 04:02:29;;;;;;;3.58;1.90;;;0.70;99.90;;;-0.45;83.16;101980.75;4169209;28;20109;-75
2023/02/27 04:04:31;;;;;;;7.22;2.10;;;0.60;99.90;;;-0.48;83.26;101975.66;4169007;28;20026;-75
2023/02/27 04:09:20;;;;;;;3.05;1.85;;;0.60;99.90;;;-0.40;83.22;101972.78;4170596;28;20025;-75
2023/02/27 04:11:40;;;;;;;3.22;1.92;;;0.60;99.90;;;-0.37;82.82;101978.72;4169229;28;20036;-75
2023/02/27 04:14:17;;;;;;;3.08;1.60;;;0.60;99.90;;;-0.32;82.99;101974.19;4173829;28;20017;-76
2023/02/27 04:16:52;;;;;;;2.10;1.48;;;0.70;99.90;;;-0.30;82.99;101974.97;4185949;28;20029;-75
2023/02/27 04:19:11;;;;;;;6.22;1.42;;;0.70;99.90;;;-0.36;83.13;101975.19;4170312;28;20037;-75
2023/02/27 04:21:54;;;;;;;2.60;1.75;;;0.70;99.90;;;-0.34;82.90;101976.00;4185128;28;20037;-75
2023/02/27 04:24:46;;;;;;;3.47;1.75;;;0.70;99.90;;;-0.42;83.44;101972.84;4170182;28;20052;-75
2023/02/27 04:27:12;;;;;;;2.67;1.70;;;0.70;99.90;;;-0.47;83.58;101974.75;4163981;28;20053;-75
2023/02/27 04:29:36;;;;;;;2.67;1.52;;;0.60;99.90;;;-0.38;83.63;101977.00;4172062;28;20022;-75
2023/02/27 04:31:49;;;;;;;5.35;1.60;;;0.60;99.90;;;-0.31;83.24;101981.06;4174883;28;20520;-75
2023/02/27 04:33:59;;;;;;;5.45;2.28;;;0.70;99.90;;;-0.32;83.34;101979.38;4175332;28;20029;-75
2023/02/27 04:36:20;;;;;;;6.30;1.80;;;0.70;99.90;;;-0.21;83.08;101979.81;4168470;28;20083;-75
2023/02/27 04:38:50;;;;;;;5.18;1.58;;;0.70;99.90;;;-0.20;82.51;101975.47;4170024;28;20052;-75
2023/02/27 04:41:02;;;;;;;3.58;1.75;;;0.80;99.90;;;-0.18;82.25;101989.25;4168029;28;20041;-75
2023/02/27 04:43:08;;;;;;;8.10;2.55;;;0.80;99.90;;;-0.06;82.37;101981.81;4168338;28;20111;-75
2023/02/27 04:45:15;;;;;;;4.43;1.90;;;0.80;99.90;;;-0.13;81.67;101985.56;4168538;28;20034;-75
2023/02/27 04:47:17;;;;;;;4.68;1.90;;;0.90;99.90;;;-0.10;81.59;101985.47;4174696;28;20025;-75
2023/02/27 04:49:28;;;;;;;2.80;1.60;;;0.90;99.90;;;-0.20;81.74;101991.88;4168405;28;20068;-75
2023/02/27 04:51:41;;;;;;;3.47;2.28;;;0.90;99.90;;;-0.12;81.80;101992.44;4167562;28;20030;-75
2023/02/27 04:53:46;;;;;;;3.90;1.80;;;0.90;99.90;;;-0.09;81.67;102002.69;4169081;28;20539;-75
2023/02/27 04:55:57;;;;;;;4.18;1.90;;;0.90;99.90;;;-0.21;81.79;101992.78;4186051;28;20029;-75
2023/02/27 04:58:07;;;;;;;3.28;1.73;;;0.90;99.90;;;-0.20;81.79;102006.59;4171849;28;20105;-75
2023/02/27 05:00:12;;;;;;;2.15;1.30;;;0.80;99.90;;;-0.28;82.35;102000.84;4168247;28;20567;-75
2023/02/27 05:02:33;;;;;;;2.60;1.52;;;0.80;99.90;;;-0.35;82.71;102002.81;4175334;28;20029;-76
2023/02/27 05:04:40;;;;;;;3.22;1.48;;;0.70;99.90;;;-0.29;82.18;102004.34;4180117;28;20530;-76
2023/02/27 05:06:46;;;;;;;7.57;3.25;;;0.70;99.90;;;-0.29;82.40;102000.00;4172971;28;20064;-76
2023/02/27 05:09:00;;;;;;;4.55;1.42;;;0.70;99.90;;;-0.34;82.28;101995.88;4168185;28;20044;-76
2023/02/27 05:11:17;;;;;;;8.20;3.28;;;0.80;99.90;;;-0.40;82.64;102007.34;4168497;28;20033;-76
2023/02/27 05:13:25;;;;;;;2.95;1.40;;;0.70;99.90;;;-0.35;82.54;102009.75;4167785;28;20033;-76
2023/02/27 05:15:46;;;;;;;3.22;1.95;;;0.70;99.90;;;-0.38;82.67;101994.31;4168217;28;20030;-76
2023/02/27 05:17:59;;;;;;;3.17;1.60;;;0.70;99.90;;;-0.40;82.71;102009.06;4167900;28;20022;-76
2023/02/27 05:20:01;;;;;;;4.10;1.63;;;0.70;99.90;;;-0.43;82.59;102002.25;4171358;28;20025;-76
2023/02/27 05:22:47;;;;;;;3.10;1.60;;;0.70;99.90;;;-0.41;82.86;102003.03;4184512;28;20531;-76
2023/02/27 05:25:21;;;;;;;6.22;2.08;;;0.70;99.90;;;-0.42;82.79;101998.78;4179416;28;20034;-76
2023/02/27 05:28:00;;;;;;;2.05;1.60;;;0.60;99.90;;;-0.49;83.25;102005.06;4184273;28;20044;-76
2023/02/27 05:30:23;;;;;;;6.47;1.58;;;0.60;99.90;;;-0.45;82.89;101998.88;4169217;28;20033;-76
2023/02/27 05:32:47;;;;;;;4.35;1.65;;;0.60;99.90;;;-0.45;82.98;102004.06;4168116;28;20056;-76
2023/02/27 05:35:05;;;;;;;4.80;1.35;;;0.60;99.90;;;-0.58;83.38;102006.25;4175139;28;20033;-76
2023/02/27 05:37:33;;;;;;;3.67;1.77;;;0.50;99.90;;;-0.60;83.68;102012.38;4180800;28;20032;-76
2023/02/27 05:39:38;;;;;;;2.85;1.35;;;0.50;99.90;;;-0.73;83.79;101998.16;4172258;28;20040;-76
2023/02/27 05:41:53;;;;;;;4.80;1.58;;;0.40;99.90;;;-0.76;84.32;102006.03;4184316;28;20060;-76
2023/02/27 05:44:05;;;;;;;3.25;1.40;;;0.40;99.90;;;-0.76;84.38;102003.44;4183988;28;20040;-76
2023/02/27 05:46:15;;;;;;;3.70;1.60;;;0.30;99.90;;;-0.77;84.35;102006.91;4184362;28;20087;-76
2023/02/27 05:48:31;;;;;;;4.38;1.70;;;0.30;99.90;;;-0.83;84.43;102017.50;4168964;28;20180;-76
2023/02/27 05:50:35;;;;;;;2.45;1.40;;;0.30;99.90;;;-0.78;84.58;102011.28;4167570;28;20021;-76
2023/02/27 05:52:37;;;;;;;4.57;1.63;;;0.30;99.90;;;-0.83;84.67;102012.31;4167607;28;20033;-76
2023/02/27 05:54:51;;;;;;;3.33;1.50;;;0.30;99.90;;;-0.83;84.38;102004.53;4175768;28;20548;-76
2023/02/27 05:56:56;;;;;;;2.15;1.20;;;0.30;99.90;;;-0.89;84.62;102017.69;4180631;28;20081;-76
2023/02/27 05:59:13;;;;;;;4.75;2.08;;;0.20;99.90;;;-0.78;84.68;102013.88;4170915;28;20433;-76
2023/02/27 06:01:14;;;;;;;4.50;1.92;;;0.20;99.90;;;-0.83;84.31;102012.31;4184129;28;20029;-76
2023/02/27 06:03:15;;;;;;;4.55;1.60;;;0.30;99.90;;;-0.74;84.55;102018.03;4184913;28;20382;-75
2023/02/27 06:05:18;;;;;;;4.13;1.65;;;0.20;99.90;;;-0.94;84.66;102004.06;4183785;28;20032;-76
2023/02/27 06:07:19;;;;;;;4.50;2.10;;;0.20;99.90;;;-0.89;85.18;102015.13;4177881;28;20136;-76
2023/02/27 06:09:20;;;;;;;3.20;1.30;;;0.20;99.90;;;-0.88;84.92;102025.44;4169513;28;20440;-77
2023/02/27 06:11:21;;;;;;;3.42;1.83;;;0.20;99.90;;;-0.92;84.79;102017.81;4168611;28;20033;-76
2023/02/27 06:13:23;;;;;;;3.60;1.83;;;0.20;99.90;;;-0.90;85.33;102026.41;4167059;28;20104;-76
2023/02/27 06:15:24;;;;;;;6.30;1.75;;;0.20;99.90;;;-0.87;85.10;102024.56;4167106;28;20087;-76
2023/02/27 06:17:25;;;;;;;4.72;1.80;;;0.20;99.90;;;-0.75;85.03;102023.28;4176631;28;20053;-76
2023/02/27 06:19:26;;;;;;;4.20;1.58;;;0.20;99.90;;;-0.81;85.22;102013.97;4172830;28;20021;-76
2023/02/27 06:21:27;;;;;;;5.15;1.58;;;0.20;99.90;;;-0.82;85.25;102008.84;4168441;28;20080;-76
2023/02/27 06:23:28;;;;;;;5.35;1.70;;;0.20;99.90;;;-0.85;85.33;102016.72;4167434;28;20587;-76
2023/02/27 06:25:29;;;;;;;4.15;1.60;;;0.30;99.90;;;-0.86;85.32;102018.44;4168505;28;20037;-76
2023/02/27 06:27:29;;;;;;;4.63;1.75;;;0.30;99.90;;;-0.81;85.48;102032.13;4175039;28;20045;-76
2023/02/27 06:29:30;;;;;;;3.30;1.60;;;0.20;99.90;;;-0.84;85.36;102027.03;4169325;28;20037;-76
2023/02/27 06:31:31;;;;;;;6.25;1.63;;;0.20;99.90;;;-0.88;85.37;102033.22;4156190;28;20053;-76
2023/02/27 06:33:32;;;;;;;3.25;1.40;;;0.20;99.90;;;-0.79;85.23;102029.44;4175165;28;20089;-76
2023/02/27 06:35:33;;;;;;;5.82;2.03;;;0.30;99.90;;;-0.69;85.10;102046.38;4167133;28;20029;-76
2023/02/27 06:37:34;;;;;;;3.45;1.63;;;0.30;99.90;;;-0.57;84.77;102035.59;4175530;28;20431;-76
2023/02/27 06:39:35;;;;;;;5.20;1.70;;;0.40;99.90;;;-0.58;84.46;102036.50;4167292;28;20051;-76
2023/02/27 06:41:36;;;;;;;4.25;1.80;;;0.40;99.90;;;-0.73;84.16;102018.88;4167105;28;20025;-76
2023/02/27 06:43:37;;;;;;;6.88;1.55;;;0.40;99.90;;;-0.65;84.17;102024.63;4183606;28;20511;-76
2023/02/27 06:45:38;;;;;;;2.78;1.77;;;0.40;99.90;;;-0.68;84.45;102022.16;4166929;28;20026;-76
2023/02/27 06:47:40;;;;;;;5.18;1.80;;;0.40;99.90;;;-0.81;84.79;102021.75;4172915;28;20426;-76
2023/02/27 06:49:41;;;;;;;2.85;1.58;;;0.40;99.90;;;-0.75;84.66;102018.09;4167086;28;20033;-76
2023/02/27 06:51:42;;;;;;;4.00;1.65;;;0.30;99.90;;;-0.76;84.59;102031.94;4166992;28;20072;-75
2023/02/27 06:53:42;;;;;;;5.30;2.30;;;0.30;99.90;;;-0.65;84.25;102022.03;4151102;28;20061;-75
2023/02/27 06:55:43;;;;;;;7.25;1.95;;;0.40;99.90;;;-0.74;84.52;102032.72;4183485;28;20029;-75
2023/02/27 06:57:48;;;;;;;3.33;1.33;;;0.40;99.90;;;-0.79;84.01;102032.03;4168881;28;20037;-75
2023/02/27 06:59:49;;;;;;;2.38;1.20;;;0.40;99.90;;;-0.79;84.76;102035.50;4167058;28;20068;-76
2023/02/27 07:01:50;;;;;;;5.45;1.88;;;0.30;99.90;;;-0.70;84.41;102029.13;4166938;28;20447;-77
2023/02/27 07:03:56;;;;;;;6.00;1.75;;;0.40;99.90;;;-0.65;84.10;102037.59;4167261;28;20032;-78
2023/02/27 07:05:58;;;;;;;6.85;1.90;;;0.40;99.90;;;-0.67;84.42;102045.44;4158211;28;20036;-76
2023/02/27 07:07:59;;;;;;;4.50;2.13;;;0.40;99.90;;;-0.63;84.40;102046.19;4178443;28;20029;-76
2023/02/27 07:10:00;;;;;;;3.55;1.88;;;0.40;99.90;;;-0.64;84.17;102039.28;4166735;28;20520;-76
2023/02/27 07:12:02;;;;;;;4.05;2.00;;;0.50;99.90;;;-0.59;84.19;102048.59;4184708;28;20128;-76
2023/02/27 07:14:03;;;;;;;4.93;2.03;;;0.50;99.90;;;-0.55;83.81;102051.94;4184572;28;20036;-76
2023/02/27 07:16:05;;;;;;;8.63;3.13;;;0.50;99.90;;;-0.56;83.55;102055.41;4186016;28;20037;-77
2023/02/27 07:18:05;;;;;;;3.90;2.67;;;0.50;99.90;;;-0.47;83.51;102060.28;4169724;28;20110;-76
2023/02/27 07:20:09;;;;;;;7.63;2.30;;;0.50;99.90;;;-0.42;83.39;102060.97;4171129;28;20080;-76
2023/02/27 07:22:10;;;;;;;4.30;2.07;;;0.60;99.90;;;-0.41;83.33;102051.44;4169981;28;20060;-77
2023/02/27 07:24:11;;;;;;;4.72;1.90;;;0.60;99.90;;;-0.20;82.40;102063.63;4170126;28;20311;-76
2023/02/27 07:26:12;;;;;;;4.93;2.20;;;0.70;99.90;;;-0.30;82.34;102057.94;4171663;28;20072;-76
2023/02/27 07:28:13;;;;;;;4.68;2.50;;;0.70;99.90;;;-0.31;81.95;102061.44;4170635;28;20038;-76
2023/02/27 07:30:15;;;;;;;5.47;2.17;;;0.70;99.90;;;-0.19;82.16;102061.00;4172824;28;20366;-76
2023/02/27 07:32:16;;;;;;;3.60;2.13;;;0.80;99.90;;;-0.24;81.97;102068.06;4180509;28;20086;-76
2023/02/27 07:34:17;;;;;;;5.15;2.10;;;0.80;99.90;;;-0.24;81.35;102070.66;4169586;28;20052;-77
2023/02/27 07:36:18;;;;;;;7.55;2.55;;;0.80;99.90;;;-0.17;81.57;102066.13;4172409;28;20025;-77
2023/02/27 07:38:21;;;;;;;5.78;2.50;;;0.90;99.90;;;-0.20;81.09;102058.44;4180004;28;20030;-76
2023/02/27 07:40:22;;;;;;;8.73;2.63;;;0.90;99.90;;;-0.17;80.89;102064.38;4169661;28;20028;-76
2023/02/27 07:42:23;;;;;;;7.03;2.33;;;0.90;99.90;;;-0.06;80.66;102067.41;4169175;28;20030;-76
2023/02/27 07:44:24;;;;;;;4.55;2.13;;;0.90;99.90;;;-0.03;80.52;102059.53;4170906;28;20061;-76
2023/02/27 07:46:26;;;;;;;4.68;2.22;;;1.00;99.90;;;0.04;79.91;102059.28;4173416;28;20017;-76
2023/02/27 07:48:27;;;;;;;2.97;1.85;;;1.00;99.90;;;-0.03;80.17;102072.50;4169546;28;20112;-76
2023/02/27 07:50:28;;;;;;;2.85;2.30;;;1.10;99.90;;;0.18;80.55;102075.22;4186972;28;20431;-77
2023/02/27 07:52:29;;;;;;;2.88;1.88;;;1.10;99.90;;;0.18;79.65;102083.81;4185824;28;20025;-76
2023/02/27 07:54:30;;;;;;;6.15;2.58;;;1.20;99.90;;;0.13;79.16;102054.63;4179849;28;20032;-76
2023/02/27 07:56:31;;;;;;;8.40;2.67;;;1.20;99.90;;;0.21;78.49;102073.31;4174941;28;20083;-76
2023/02/27 07:58:32;;;;;;;3.17;2.50;;;1.30;99.90;;;0.24;78.93;102075.00;4171610;28;20030;-76
2023/02/27 08:00:33;;;;;;;6.07;2.30;;;1.30;99.90;;;0.25;78.72;102071.47;4169343;28;20100;-76
2023/02/27 08:02:34;;;;;;;7.75;2.97;;;1.30;99.90;;;0.30;78.10;102072.97;4170411;28;20029;-76
2023/02/27 08:04:35;;;;;;;4.45;2.00;;;1.30;99.90;;;0.24;77.75;102069.78;4169475;28;20075;-76
2023/02/27 08:06:35;;;;;;;3.70;2.38;;;1.40;99.90;;;0.28;77.30;102079.13;4173735;28;20021;-76
2023/02/27 08:08:36;;;;;;;4.45;2.20;;;1.40;99.90;;;0.34;77.08;102084.09;4169082;28;20046;-76
2023/02/27 08:10:37;;;;;;;4.60;2.75;;;1.40;99.90;;;0.36;76.46;102088.31;4170287;28;20037;-76
2023/02/27 08:12:38;;;;;;;4.63;2.17;;;1.40;99.90;;;0.36;76.46;102085.72;4168858;28;20421;-76
2023/02/27 08:14:39;;;;;;;4.72;2.17;;;1.40;99.90;;;0.45;75.95;102092.31;4185221;28;20017;-76
2023/02/27 08:16:40;;;;;;;2.97;1.73;;;1.50;99.90;;;0.62;74.74;102105.50;4172081;28;20017;-76
2023/02/27 08:18:41;;;;;;;4.55;2.17;;;1.50;99.90;;;0.60;75.11;102090.91;4170174;28;20053;-76
2023/02/27 08:20:42;;;;;;;5.95;3.22;;;1.60;99.90;;;0.64;74.25;102095.91;4185352;28;20098;-76
2023/02/27 08:22:43;;;;;;;2.88;1.77;;;1.70;99.90;;;0.60;74.15;102094.31;4169991;28;20547;-76
2023/02/27 08:24:44;;;;;;;3.60;2.10;;;1.70;99.90;;;0.72;73.30;102095.63;4185331;28;20040;-76
2023/02/27 08:26:45;;;;;;;4.90;2.08;;;1.70;99.90;;;0.71;73.25;102099.97;4157968;28;20054;-76
2023/02/27 08:28:46;;;;;;;3.70;1.90;;;1.70;99.90;;;0.68;73.29;102086.25;4176666;28;20029;-76
2023/02/27 08:30:48;;;;;;;2.70;1.90;;;1.80;99.90;;;0.72;72.70;102090.44;4168682;28;20549;-77
2023/02/27 08:32:48;;;;;;;5.72;2.10;;;1.80;99.90;;;0.84;72.27;102106.34;4170180;28;20065;-76
2023/02/27 08:34:49;;;;;;;5.18;1.92;;;1.90;99.90;;;0.99;70.91;102103.13;4169850;28;20041;-76
2023/02/27 08:36:51;;;;;;;4.38;1.95;;;1.90;99.90;;;1.06;69.74;102090.75;4176411;28;20094;-76
2023/02/27 08:38:52;;;;;;;5.40;2.05;;;2.00;99.90;;;1.09;69.82;102096.66;4173578;28;20075;-76
2023/02/27 08:40:53;;;;;;;2.83;1.73;;;2.10;99.90;;;1.22;68.91;102101.38;4168612;28;20432;-76
2023/02/27 08:42:54;;;;;;;3.97;1.90;;;2.10;99.90;;;1.21;68.13;102091.88;4168396;28;20041;-76
2023/02/27 08:44:55;;;;;;;5.20;1.80;;;2.20;99.90;;;1.26;67.05;102069.13;4169907;28;20041;-76
2023/02/27 08:46:56;;;;;;;4.63;1.77;;;2.30;99.90;;;1.34;66.26;102082.66;4176816;28;20618;-76
2023/02/27 08:48:57;;;;;;;4.20;1.40;;;2.40;99.90;;;1.35;65.98;102076.53;4170360;28;20048;-76
2023/02/27 08:50:57;;;;;;;2.58;1.40;;;2.40;99.90;;;1.37;65.97;102083.38;4168484;28;20029;-76
2023/02/27 08:52:58;;;;;;;2.63;1.63;;;2.40;99.90;;;1.39;66.31;102083.31;4176351;28;20515;-76
2023/02/27 08:54:59;;;;;;;8.02;2.22;;;2.40;99.90;;;1.42;66.48;102088.38;4184853;28;20033;-76
2023/02/27 08:57:00;;;;;;;3.05;1.80;;;2.40;99.90;;;1.50;65.76;102096.69;4178233;28;20026;-76
2023/02/27 08:59:01;;;;;;;4.18;1.67;;;2.50;99.90;;;1.51;65.99;102090.59;4169589;28;20018;-76
2023/02/27 09:01:03;;;;;;;3.13;1.20;;;2.50;99.90;;;1.53;65.65;102087.00;4169856;28;20488;-76